Time;durP1;ratioP1;P1;durP2;ratioP2;P2;SDS_P1;SDS_P2;PMS_P1;PMS_P2;Temp;Humidity;BMP_temperature;BMP_pressure;BME280_temperature;BME280_humidity;BME280_pressure;Samples;Min_cycle;Max_cycle;Signal;HPM_P1;HPM_P2
2022/09/04 00:02:39;;;;;;;10.43;5.30;;;;;;;15.55;75.09;94358.28;5005111;28;20029;-80
2022/09/04 00:05:27;;;;;;;8.30;5.13;;;;;;;15.53;74.91;94349.78;5004827;28;20316;-80
2022/09/04 00:08:31;;;;;;;9.48;4.80;;;;;;;15.51;75.04;94360.88;5003880;28;20063;-81
2022/09/04 00:11:07;;;;;;;7.20;4.90;;;;;;;15.51;75.03;94352.81;5003399;28;20069;-80
2022/09/04 00:13:37;;;;;;;6.63;4.97;;;;;;;15.50;74.91;94353.13;5004702;28;20018;-80
2022/09/04 00:16:18;;;;;;;7.55;4.65;;;;;;;15.48;75.04;94353.47;5004538;28;20034;-80
2022/09/04 00:19:07;;;;;;;7.20;4.65;;;;;;;15.49;74.94;94354.22;5004557;28;20097;-80
2022/09/04 00:21:55;;;;;;;7.28;4.97;;;;;;;15.47;74.69;94367.22;5004597;28;20105;-80
2022/09/04 00:24:34;;;;;;;8.45;4.63;;;;;;;15.44;74.76;94350.63;5004623;28;20026;-81
2022/09/04 00:27:20;;;;;;;7.43;4.45;;;;;;;15.45;74.93;94354.13;5004468;28;20093;-81
2022/09/04 00:30:06;;;;;;;8.25;4.90;;;;;;;15.43;74.98;94357.16;5004543;28;20045;-81
2022/09/04 00:32:50;;;;;;;10.02;4.97;;;;;;;15.39;74.90;94361.59;5004257;28;20198;-81
2022/09/04 00:35:35;;;;;;;6.30;4.82;;;;;;;15.39;75.12;94360.84;5004536;28;20061;-81
2022/09/04 00:38:07;;;;;;;8.68;4.90;;;;;;;15.38;75.32;94362.72;5004421;28;20056;-81
2022/09/04 00:41:14;;;;;;;8.10;5.57;;;;;;;15.38;75.67;94362.72;5004230;28;20223;-81
2022/09/04 00:44:07;;;;;;;9.75;5.00;;;;;;;15.35;75.86;94354.56;4983230;28;20034;-80
2022/09/04 00:47:10;;;;;;;7.30;4.63;;;;;;;15.34;75.69;94361.81;5003929;28;20109;-80
2022/09/04 00:49:44;;;;;;;;;;;;;;;15.32;75.50;94353.28;5004382;28;20026;-80
2022/09/04 00:52:28;;;;;;;9.10;4.57;;;;;;;15.24;75.85;94354.16;5004039;28;20212;-80
2022/09/04 00:55:26;;;;;;;7.32;4.85;;;;;;;15.19;75.68;94341.72;5003955;28;20061;-80
2022/09/04 00:58:10;;;;;;;9.60;5.43;;;;;;;15.20;75.84;94353.25;5003730;28;20023;-80
2022/09/04 01:00:35;;;;;;;9.25;5.22;;;;;;;15.18;75.86;94360.84;5003728;28;20018;-80
2022/09/04 01:03:23;;;;;;;11.88;5.03;;;;;;;15.15;76.01;94348.88;5003729;28;20057;-80
2022/09/04 01:06:23;;;;;;;8.73;4.82;;;;;;;15.14;76.16;94349.19;5004010;28;20041;-81
2022/09/04 01:09:10;;;;;;;8.65;5.20;;;;;;;15.14;76.23;94357.25;5003960;28;20030;-81
2022/09/04 01:11:48;;;;;;;7.13;4.97;;;;;;;15.12;76.25;94357.59;5003598;28;20225;-79
2022/09/04 01:14:32;;;;;;;9.75;5.50;;;;;;;15.10;75.98;94359.03;5003464;28;20022;-80
2022/09/04 01:17:31;;;;;;;8.05;4.75;;;;;;;15.10;76.15;94359.81;5003236;28;20025;-79
2022/09/04 01:19:56;;;;;;;11.57;5.00;;;;;;;15.07;75.90;94371.22;5003614;28;20267;-79
2022/09/04 01:22:35;;;;;;;9.90;5.07;;;;;;;15.04;75.92;94371.84;5003494;28;20069;-80
2022/09/04 01:25:40;;;;;;;10.35;5.45;;;;;;;15.00;75.86;94369.06;5003261;28;20198;-80
2022/09/04 01:28:33;;;;;;;7.55;4.82;;;;;;;14.94;76.26;94362.31;5003377;28;20014;-80
2022/09/04 01:31:03;;;;;;;10.77;5.18;;;;;;;14.94;75.79;94367.69;4982839;28;20042;-80
2022/09/04 01:33:52;;;;;;;8.80;4.97;;;;;;;14.92;76.11;94358.38;5003192;28;20030;-80
2022/09/04 01:36:40;;;;;;;7.97;5.75;;;;;;;14.84;76.46;94349.28;5003626;28;20060;-80
2022/09/04 01:39:05;;;;;;;10.45;5.55;;;;;;;14.84;76.31;94347.38;5002952;28;20026;-80
2022/09/04 01:41:45;;;;;;;7.88;5.43;;;;;;;14.90;76.68;94344.50;5003233;28;20046;-80
2022/09/04 01:44:11;;;;;;;7.85;5.25;;;;;;;14.87;76.40;94348.63;5003002;28;20037;-80
2022/09/04 01:47:13;;;;;;;9.43;5.68;;;;;;;14.88;76.22;94346.72;5003090;28;20046;-80
2022/09/04 01:49:41;;;;;;;7.97;5.10;;;;;;;14.88;76.20;94342.16;5003065;28;20359;-80
2022/09/04 01:52:07;;;;;;;7.25;4.88;;;;;;;14.85;76.20;94340.13;5003018;28;20278;-80
2022/09/04 01:54:44;;;;;;;8.45;5.15;;;;;;;14.84;76.41;94347.38;5003116;28;20048;-80
2022/09/04 01:57:22;;;;;;;8.27;5.07;;;;;;;14.82;76.60;94341.56;5002978;28;20032;-80
2022/09/04 02:00:09;;;;;;;7.68;5.25;;;;;;;14.80;76.68;94345.69;5003164;28;20026;-80
2022/09/04 02:03:08;;;;;;;8.35;4.72;;;;;;;14.78;76.44;94345.25;5003059;28;20048;-80
2022/09/04 02:06:22;;;;;;;14.43;5.05;;;;;;;14.75;75.69;94337.84;5002933;28;20058;-79
2022/09/04 02:09:10;;;;;;;6.55;4.68;;;;;;;14.64;76.16;94334.75;4967190;28;20226;-80
2022/09/04 02:11:38;;;;;;;9.07;6.22;;;;;;;14.55;77.17;94334.78;5003113;28;20085;-81
2022/09/04 02:14:10;;;;;;;9.18;5.07;;;;;;;14.52;77.47;94330.06;5002937;28;20034;-80
2022/09/04 02:16:44;;;;;;;8.77;4.85;;;;;;;14.52;77.21;94342.69;5002995;28;20033;-80
2022/09/04 02:19:28;;;;;;;9.52;6.25;;;;;;;14.53;77.53;94341.56;5002716;28;20073;-80
2022/09/04 02:22:00;;;;;;;12.30;6.20;;;;;;;14.54;77.99;94335.91;5018170;28;20360;-79
2022/09/04 02:24:48;;;;;;;;;;;;;;;14.54;78.20;94337.81;5003059;28;20101;-80
2022/09/04 02:27:25;;;;;;;7.88;5.35;;;;;;;14.52;78.14;94340.81;5002654;28;19905;-80
2022/09/04 02:30:01;;;;;;;10.07;5.85;;;;;;;14.51;77.94;94322.34;5003474;28;20048;-79
2022/09/04 02:32:41;;;;;;;8.85;6.50;;;;;;;14.49;78.07;94319.19;5006564;28;20065;-80
2022/09/04 02:35:35;;;;;;;8.18;5.43;;;;;;;14.52;77.73;94316.66;5006594;28;20038;-80
2022/09/04 02:38:19;;;;;;;8.57;5.30;;;;;;;14.51;77.50;94317.78;4997152;28;20106;-80
2022/09/04 02:40:58;;;;;;;11.35;5.63;;;;;;;14.53;77.27;94325.47;5006423;28;20042;-80
2022/09/04 02:43:35;;;;;;;10.82;5.45;;;;;;;14.52;76.96;94334.66;5006246;28;20022;-80
2022/09/04 02:46:24;;;;;;;10.23;5.40;;;;;;;14.52;76.95;94335.44;5006209;28;20042;-80
2022/09/04 02:49:12;;;;;;;9.70;6.50;;;;;;;14.51;76.82;94331.19;4995718;28;20041;-80
2022/09/04 02:51:40;;;;;;;9.45;6.15;;;;;;;14.48;77.08;94337.19;5006284;28;20072;-80
2022/09/04 02:54:15;;;;;;;8.70;5.35;;;;;;;14.46;76.81;94336.75;5006214;28;20221;-80
2022/09/04 02:56:46;;;;;;;7.90;5.55;;;;;;;14.47;76.97;94343.69;5006342;28;20029;-80
2022/09/04 02:59:30;;;;;;;8.82;6.35;;;;;;;14.42;77.07;94341.19;5006091;28;20177;-80
2022/09/04 03:01:58;;;;;;;9.07;6.28;;;;;;;14.37;77.45;94338.69;5006139;28;20097;-80
2022/09/04 03:04:36;;;;;;;10.88;6.28;;;;;;;14.33;77.67;94343.91;5005965;28;20154;-80
2022/09/04 03:07:08;;;;;;;10.52;7.22;;;;;;;14.27;77.83;94344.41;5005876;28;20029;-80
2022/09/04 03:09:45;;;;;;;10.23;6.30;;;;;;;14.27;78.78;94347.91;5005923;28;20030;-80
2022/09/04 03:12:30;;;;;;;11.88;5.97;;;;;;;14.21;78.65;94344.63;5006047;28;20529;-80
2022/09/04 03:15:12;;;;;;;7.68;5.78;;;;;;;14.22;78.02;94348.06;5005713;28;20344;-80
2022/09/04 03:17:49;;;;;;;10.65;6.53;;;;;;;14.20;78.13;94345.72;5020634;28;20027;-80
2022/09/04 03:20:24;;;;;;;11.95;7.40;;;;;;;14.19;78.45;94338.00;5005691;28;20038;-79
2022/09/04 03:23:14;;;;;;;14.93;6.70;;;;;;;14.20;78.59;94351.06;5005823;28;20089;-80
2022/09/04 03:25:48;;;;;;;11.02;6.90;;;;;;;14.16;79.05;94344.78;5005553;28;20022;-80
2022/09/04 03:28:37;;;;;;;10.63;7.13;;;;;;;14.17;79.13;94338.31;5005506;28;20098;-80
2022/09/04 03:31:21;;;;;;;12.98;6.65;;;;;;;14.18;78.77;94347.16;4999975;28;20080;-80
2022/09/04 03:33:59;;;;;;;9.90;6.95;;;;;;;14.16;78.97;94355.50;5005460;28;20022;-80
2022/09/04 03:36:47;;;;;;;11.85;7.88;;;;;;;14.09;79.02;94343.75;5005230;28;20093;-80
2022/09/04 03:39:23;;;;;;;12.25;7.32;;;;;;;14.05;79.08;94348.94;5005356;28;20042;-80
2022/09/04 03:42:22;;;;;;;14.85;7.57;;;;;;;14.02;79.11;94358.44;5005267;28;20026;-80
2022/09/04 03:45:23;;;;;;;13.07;7.85;;;;;;;13.94;79.34;94359.25;5005169;28;20037;-80
2022/09/04 03:48:16;;;;;;;12.55;7.38;;;;;;;13.91;79.84;94359.09;5005009;28;20042;-80
2022/09/04 03:51:09;;;;;;;15.25;7.13;;;;;;;13.89;79.86;94364.78;5005103;28;20085;-80
2022/09/04 03:53:49;;;;;;;9.23;6.35;;;;;;;13.88;79.62;94371.25;5004994;28;20022;-80
2022/09/04 03:56:36;;;;;;;10.32;6.45;;;;;;;13.86;79.18;94376.16;5004993;28;20240;-80
2022/09/04 03:59:07;;;;;;;10.00;7.03;;;;;;;13.83;78.60;94380.22;5004953;28;20198;-80
2022/09/04 04:01:48;;;;;;;9.53;6.63;;;;;;;13.85;79.21;94377.25;5004828;28;20028;-80
2022/09/04 04:04:34;;;;;;;12.30;7.60;;;;;;;13.82;79.62;94383.25;5004999;28;20034;-80
2022/09/04 04:07:20;;;;;;;15.80;6.68;;;;;;;13.74;80.06;94392.88;5004848;28;20026;-80
2022/09/04 04:10:29;;;;;;;11.20;7.15;;;;;;;13.64;80.84;94401.25;5004663;28;20075;-80
2022/09/04 04:13:25;;;;;;;13.88;7.55;;;;;;;13.59;80.97;94406.78;4994294;28;20232;-80
2022/09/04 04:16:02;;;;;;;10.43;7.22;;;;;;;13.59;80.78;94423.63;4996113;28;20351;-80
2022/09/04 04:18:43;;;;;;;16.77;8.88;;;;;;;13.53;80.95;94424.91;5004559;28;20026;-80
2022/09/04 04:21:32;;;;;;;14.70;7.32;;;;;;;13.54;80.99;94420.34;5004477;28;20073;-81
2022/09/04 04:24:13;;;;;;;13.98;8.40;;;;;;;13.53;81.27;94416.09;5004399;28;20085;-80
2022/09/04 04:27:11;;;;;;;16.52;8.48;;;;;;;13.54;81.23;94433.75;5003984;28;20026;-80
2022/09/04 04:30:07;;;;;;;25.23;10.93;;;;;;;13.55;81.73;94429.94;5004230;28;20101;-80
2022/09/04 04:32:40;;;;;;;13.35;8.60;;;;;;;13.58;82.05;94430.09;5004349;28;20050;-80
2022/09/04 04:35:11;;;;;;;19.85;11.00;;;;;;;13.63;82.04;94429.13;5004145;28;20045;-80
2022/09/04 04:37:37;;;;;;;19.15;11.32;;;;;;;13.70;81.64;94434.00;5004124;28;20037;-80
2022/09/04 04:40:14;;;;;;;13.82;9.25;;;;;;;13.76;81.35;94425.50;5004238;28;20041;-80
2022/09/04 04:42:56;;;;;;;16.45;9.07;;;;;;;13.83;81.32;94425.78;5004198;28;20100;-80
2022/09/04 04:45:49;;;;;;;17.60;8.77;;;;;;;13.90;81.33;94427.19;5003874;28;20328;-80
2022/09/04 04:48:30;;;;;;;17.17;8.75;;;;;;;13.97;81.42;94422.13;5003813;28;20323;-79
2022/09/04 04:51:39;;;;;;;17.83;8.43;;;;;;;14.11;81.19;94438.81;5004105;28;20022;-79
2022/09/04 04:54:12;;;;;;;11.70;7.93;;;;;;;14.19;80.92;94439.88;5003379;28;20041;-79
2022/09/04 04:56:49;;;;;;;12.60;8.82;;;;;;;14.28;81.17;94437.94;5003767;28;20232;-80
2022/09/04 04:59:24;;;;;;;16.73;8.90;;;;;;;14.30;81.22;94442.97;5003735;28;20018;-80
2022/09/04 05:02:08;;;;;;;16.08;9.40;;;;;;;14.37;81.06;94451.31;5003944;28;20311;-80
2022/09/04 05:04:46;;;;;;;15.93;9.68;;;;;;;14.48;79.89;94452.53;5003557;28;20014;-80
2022/09/04 05:07:33;;;;;;;17.80;9.70;;;;;;;14.53;79.49;94449.69;5003591;28;20106;-80
2022/09/04 05:10:04;;;;;;;20.05;9.32;;;;;;;14.56;79.78;94435.63;5003628;28;20026;-80
2022/09/04 05:12:49;;;;;;;13.97;9.40;;;;;;;14.63;79.80;94433.25;5003537;28;20030;-80
2022/09/04 05:15:22;;;;;;;21.08;9.18;;;;;;;14.63;80.26;94433.25;5003602;28;20018;-80
2022/09/04 05:17:57;;;;;;;15.73;9.65;;;;;;;14.72;80.55;94430.50;5003657;28;20026;-80
2022/09/04 05:20:41;;;;;;;17.05;10.13;;;;;;;14.87;79.49;94429.13;5003336;28;20049;-80
2022/09/04 05:23:21;;;;;;;15.43;9.43;;;;;;;14.97;79.35;94436.03;5003338;28;20018;-80
2022/09/04 05:25:59;;;;;;;17.58;10.75;;;;;;;15.05;79.20;94437.88;5003539;28;20029;-80
2022/09/04 05:28:33;;;;;;;17.75;10.52;;;;;;;15.06;79.50;94447.47;5003522;28;20027;-80
2022/09/04 05:31:21;;;;;;;19.42;10.77;;;;;;;15.18;79.89;94449.44;5003045;28;20025;-80
2022/09/04 05:33:55;;;;;;;16.55;9.23;;;;;;;15.29;79.25;94447.19;5003385;28;20201;-80
2022/09/04 05:36:29;;;;;;;15.77;10.52;;;;;;;15.35;79.05;94443.97;5003279;28;20094;-80
2022/09/04 05:39:13;;;;;;;16.10;11.05;;;;;;;15.39;78.68;94444.09;5003106;28;20070;-80
2022/09/04 05:41:53;;;;;;;20.88;11.10;;;;;;;15.44;78.71;94450.03;5003239;28;20228;-80
2022/09/04 05:44:38;;;;;;;16.58;10.88;;;;;;;15.42;78.54;94463.00;5018533;28;20023;-80
2022/09/04 05:47:13;;;;;;;24.83;11.38;;;;;;;15.38;78.13;94456.72;5003166;28;20276;-80
2022/09/04 05:49:58;;;;;;;20.75;11.52;;;;;;;15.34;78.58;94455.03;5003052;28;20308;-80
2022/09/04 05:52:45;;;;;;;21.83;12.20;;;;;;;15.43;78.33;94453.84;5002970;28;20224;-80
2022/09/04 05:55:30;;;;;;;22.33;12.23;;;;;;;15.49;78.40;94450.94;5003084;28;20022;-79
2022/09/04 05:58:04;;;;;;;21.17;12.07;;;;;;;15.52;78.23;94448.38;5002872;28;20038;-80
2022/09/04 06:01:12;;;;;;;17.60;10.20;;;;;;;15.56;78.31;94448.53;5003097;28;20023;-80
2022/09/04 06:03:58;;;;;;;18.63;11.50;;;;;;;15.58;78.08;94438.22;5002929;28;20034;-80
2022/09/04 06:06:30;;;;;;;15.43;11.35;;;;;;;15.60;78.59;94425.25;5006144;28;20018;-80
2022/09/04 06:09:19;;;;;;;24.80;11.73;;;;;;;15.62;78.49;94418.44;5007027;28;20214;-80
2022/09/04 06:11:58;;;;;;;17.70;11.88;;;;;;;15.77;77.98;94425.13;5006614;28;20106;-80
2022/09/04 06:14:38;;;;;;;26.23;12.38;;;;;;;15.83;77.59;94409.56;5006926;28;20031;-79
2022/09/04 06:17:42;;;;;;;17.73;11.73;;;;;;;15.87;77.50;94415.06;5021750;28;20061;-80
2022/09/04 06:20:22;;;;;;;17.02;11.07;;;;;;;15.93;77.28;94429.84;5006686;28;20026;-80
2022/09/04 06:22:57;;;;;;;21.00;11.38;;;;;;;15.94;77.10;94421.47;5006811;28;20050;-80
2022/09/04 06:25:45;;;;;;;21.83;12.18;;;;;;;15.96;77.64;94426.50;5006530;28;20026;-81
2022/09/04 06:28:19;;;;;;;17.95;10.95;;;;;;;15.97;77.74;94425.38;5006393;28;20329;-81
2022/09/04 06:31:07;;;;;;;17.58;11.98;;;;;;;16.00;78.26;94424.72;5006296;28;20034;-81
2022/09/04 06:33:55;;;;;;;19.50;10.55;;;;;;;16.18;77.26;94423.41;5006606;28;20331;-81
2022/09/04 06:36:44;;;;;;;28.73;11.45;;;;;;;16.29;76.10;94423.75;5005361;28;20041;-81
2022/09/04 06:40:03;;;;;;;15.68;9.98;;;;;;;16.45;76.10;94426.56;5006088;28;20395;-81
2022/09/04 06:42:37;;;;;;;16.25;9.65;;;;;;;16.42;75.98;94427.22;4965718;29;20112;-81
2022/09/04 06:45:39;;;;;;;16.52;10.13;;;;;;;16.58;75.83;94436.19;4965618;28;20041;-81
2022/09/04 06:48:19;;;;;;;15.05;10.52;;;;;;;16.75;75.23;94418.25;4976982;28;20214;-81
2022/09/04 06:51:17;;;;;;;14.40;10.30;;;;;;;16.79;74.59;94429.91;5006219;28;20031;-81
2022/09/04 06:54:14;;;;;;;15.65;10.55;;;;;;;16.88;75.01;94436.00;5006063;28;20022;-81
2022/09/04 06:56:45;;;;;;;20.02;10.80;;;;;;;17.00;74.81;94425.22;5006035;28;20030;-81
2022/09/04 06:59:23;;;;;;;17.60;11.23;;;;;;;17.14;73.38;94432.16;5005908;28;20022;-81
2022/09/04 07:01:59;;;;;;;17.58;11.48;;;;;;;17.28;72.17;94429.88;5005984;28;20045;-81
2022/09/04 07:04:42;;;;;;;18.13;11.75;;;;;;;17.37;72.02;94419.72;5006276;28;20089;-81
2022/09/04 07:07:29;;;;;;;18.08;10.65;;;;;;;17.43;72.03;94418.34;5005641;28;20073;-81
2022/09/04 07:10:15;;;;;;;17.00;9.82;;;;;;;17.64;71.77;94414.66;5006089;28;20027;-81
2022/09/04 07:12:52;;;;;;;16.13;9.00;;;;;;;17.75;71.50;94425.75;5005781;28;20048;-81
2022/09/04 07:15:27;;;;;;;16.23;9.18;;;;;;;17.76;70.36;94417.31;5004288;28;20049;-81
2022/09/04 07:18:09;;;;;;;21.10;9.60;;;;;;;17.89;69.90;94420.78;5005579;28;20102;-81
2022/09/04 07:20:49;;;;;;;15.27;9.53;;;;;;;17.98;69.72;94426.00;5005584;28;20034;-81
2022/09/04 07:23:38;;;;;;;17.27;9.65;;;;;;;17.98;69.81;94426.00;5005636;28;20098;-81
2022/09/04 07:26:31;;;;;;;15.60;9.15;;;;;;;18.11;69.05;94422.09;5005439;28;20098;-81
2022/09/04 07:29:12;;;;;;;16.17;10.00;;;;;;;18.20;68.55;94411.16;5005332;28;20097;-81
2022/09/04 07:31:45;;;;;;;15.63;8.88;;;;;;;18.35;68.33;94423.06;5005605;28;20026;-81
2022/09/04 07:34:15;;;;;;;15.27;8.00;;;;;;;18.45;68.30;94426.00;5020665;28;20060;-81
2022/09/04 07:36:43;;;;;;;12.63;7.43;;;;;;;18.56;68.38;94425.47;5005525;28;20101;-82
2022/09/04 07:39:38;;;;;;;14.38;8.50;;;;;;;18.67;66.74;94431.94;5005641;28;20093;-81
2022/09/04 07:42:13;;;;;;;21.77;8.88;;;;;;;18.67;66.20;94441.94;4990555;28;20061;-82
2022/09/04 07:45:06;;;;;;;15.30;8.40;;;;;;;18.68;66.59;94448.91;5004305;28;20026;-81
2022/09/04 07:47:41;;;;;;;11.68;7.00;;;;;;;18.72;67.04;94449.78;5005086;28;20045;-81
2022/09/04 07:50:16;;;;;;;19.38;8.02;;;;;;;18.82;66.40;94451.97;5005362;28;20378;-82
2022/09/04 07:53:03;;;;;;;21.50;7.88;;;;;;;18.85;66.35;94448.56;5005198;28;20349;-82
2022/09/04 07:55:49;;;;;;;13.25;8.10;;;;;;;18.79;65.92;94461.56;5020259;28;20045;-82
2022/09/04 07:58:49;;;;;;;12.00;8.18;;;;;;;18.82;65.07;94460.06;5005170;28;20030;-80
2022/09/04 08:01:33;;;;;;;16.40;9.65;;;;;;;18.55;65.70;94454.41;5004934;28;20030;-80
2022/09/04 08:04:31;;;;;;;21.50;9.82;;;;;;;18.63;66.05;94456.13;5004646;28;20050;-80
2022/09/04 08:07:06;;;;;;;15.02;9.45;;;;;;;18.74;65.87;94450.97;5020154;28;20045;-80
2022/09/04 08:09:59;;;;;;;17.00;7.95;;;;;;;18.77;66.16;94466.50;5004760;28;20022;-80
2022/09/04 08:12:44;;;;;;;12.55;8.05;;;;;;;18.87;64.74;94472.50;5004707;28;20256;-81
2022/09/04 08:15:25;;;;;;;11.80;7.45;;;;;;;18.96;64.72;94465.78;5005049;28;20026;-81
2022/09/04 08:18:10;;;;;;;11.20;7.07;;;;;;;19.07;64.25;94460.66;5004844;28;20172;-81
2022/09/04 08:20:43;;;;;;;12.30;7.75;;;;;;;19.23;63.00;94464.09;5004717;28;20364;-81
2022/09/04 08:23:09;;;;;;;13.07;8.38;;;;;;;19.34;62.50;94467.03;5004762;28;20034;-80
2022/09/04 08:26:10;;;;;;;17.00;9.00;;;;;;;19.34;61.67;94471.66;5004722;28;20301;-81
2022/09/04 08:29:12;;;;;;;13.60;6.87;;;;;;;19.40;61.93;94471.00;5003677;28;20033;-81
2022/09/04 08:31:42;;;;;;;11.60;7.10;;;;;;;19.54;61.33;94472.44;5004523;28;20085;-81
2022/09/04 08:34:27;;;;;;;14.07;8.10;;;;;;;19.70;61.51;94461.56;5004342;28;20277;-81
2022/09/04 08:37:02;;;;;;;16.70;7.63;;;;;;;19.80;61.29;94464.53;5003981;28;20038;-81
2022/09/04 08:39:49;;;;;;;15.48;8.00;;;;;;;19.84;59.75;94465.38;5004205;28;20018;-81
2022/09/04 08:42:52;;;;;;;12.88;8.48;;;;;;;19.83;60.68;94452.19;5004219;28;20026;-81
2022/09/04 08:45:42;;;;;;;14.82;8.10;;;;;;;19.79;59.12;94464.88;5004292;28;20026;-80
2022/09/04 08:48:32;;;;;;;13.18;7.85;;;;;;;19.65;60.06;94455.28;5004108;28;20026;-81
2022/09/04 08:51:22;;;;;;;26.60;9.27;;;;;;;19.77;60.93;94456.34;5003829;28;20026;-81
2022/09/04 08:54:22;;;;;;;12.77;6.57;;;;;;;19.81;60.82;94449.84;5004141;28;20094;-81
2022/09/04 08:57:15;;;;;;;11.13;6.93;;;;;;;20.02;59.26;94449.44;5002857;28;20317;-81
2022/09/04 08:59:46;;;;;;;13.93;7.45;;;;;;;20.11;59.32;94451.94;5003859;28;20216;-81
2022/09/04 09:02:36;;;;;;;10.48;6.95;;;;;;;20.16;59.61;94440.81;5003966;28;20101;-80
2022/09/04 09:05:24;;;;;;;18.02;7.00;;;;;;;20.31;59.04;94438.34;5003820;28;20033;-81
2022/09/04 09:08:11;;;;;;;7.75;5.65;;;;;;;20.50;59.53;94446.44;5003956;28;20224;-81
2022/09/04 09:10:43;;;;;;;10.68;6.20;;;;;;;20.65;58.59;94436.63;5003771;28;20347;-81
2022/09/04 09:13:45;;;;;;;9.38;6.30;;;;;;;20.70;57.39;94451.78;5003828;28;20022;-81
2022/09/04 09:16:35;;;;;;;8.80;6.17;;;;;;;20.83;59.01;94453.16;5003776;28;20036;-81
2022/09/04 09:19:09;;;;;;;8.30;6.35;;;;;;;20.93;56.11;94447.13;5003451;28;20036;-81
2022/09/04 09:21:44;;;;;;;9.98;5.95;;;;;;;21.00;55.65;94447.25;5003639;28;20231;-81
2022/09/04 09:24:29;;;;;;;9.95;6.25;;;;;;;21.11;55.67;94446.63;5003558;28;20030;-81
2022/09/04 09:27:10;;;;;;;9.60;5.72;;;;;;;21.13;54.39;94442.38;5003514;28;20033;-80
2022/09/04 09:29:42;;;;;;;8.07;5.45;;;;;;;21.16;55.45;94433.50;5003322;28;20026;-80
2022/09/04 09:32:29;;;;;;;11.80;5.60;;;;;;;21.30;55.93;94432.91;5003534;28;20018;-80
2022/09/04 09:35:07;;;;;;;7.40;5.43;;;;;;;21.36;54.82;94441.53;5003180;28;20029;-80
2022/09/04 09:37:52;;;;;;;10.48;5.60;;;;;;;21.43;54.11;94436.22;5003187;28;20026;-81
2022/09/04 09:40:40;;;;;;;8.45;5.75;;;;;;;21.58;54.43;94440.69;5003091;28;20033;-80
2022/09/04 09:43:28;;;;;;;7.15;5.07;;;;;;;21.60;53.18;94432.19;5003181;28;20030;-81
2022/09/04 09:46:37;;;;;;;8.38;5.65;;;;;;;21.60;52.53;94441.09;5003111;28;20048;-80
2022/09/04 09:49:41;;;;;;;14.43;7.45;;;;;;;21.64;53.12;94431.06;4998512;28;20030;-80
2022/09/04 09:52:34;;;;;;;10.82;5.13;;;;;;;21.77;53.52;94428.88;4982697;28;20034;-81
2022/09/04 09:55:30;;;;;;;10.63;4.72;;;;;;;21.98;53.15;94420.19;5003150;28;20030;-81
2022/09/04 09:58:33;;;;;;;8.55;5.32;;;;;;;22.19;52.57;94416.13;5002830;28;20022;-80
2022/09/04 10:01:18;;;;;;;8.40;4.93;;;;;;;22.32;52.03;94409.28;5018588;28;20135;-82
2022/09/04 10:04:08;;;;;;;7.32;4.90;;;;;;;22.43;50.18;94399.31;5018438;28;20022;-81
2022/09/04 10:06:59;;;;;;;6.45;4.45;;;;;;;22.35;50.78;94419.41;5002931;28;20312;-82
2022/09/04 10:09:36;;;;;;;8.52;5.28;;;;;;;22.53;50.60;94419.56;5003105;28;20231;-82
2022/09/04 10:12:05;;;;;;;6.57;4.28;;;;;;;22.63;50.46;94418.88;5003085;28;20097;-81
2022/09/04 10:15:09;;;;;;;7.45;5.10;;;;;;;22.79;49.63;94415.88;5002873;28;20030;-81
2022/09/04 10:17:52;;;;;;;9.02;5.10;;;;;;;22.95;49.95;94407.44;5002979;28;20304;-81
2022/09/04 10:20:24;;;;;;;7.20;4.82;;;;;;;23.02;49.67;94402.09;5003345;28;20022;-82
2022/09/04 10:23:04;;;;;;;7.50;4.57;;;;;;;22.89;48.99;94400.03;5002961;28;20105;-82
2022/09/04 10:25:53;;;;;;;8.90;5.18;;;;;;;23.10;50.15;94404.84;5002981;28;20026;-82
2022/09/04 10:28:40;;;;;;;8.45;5.30;;;;;;;23.10;48.54;94399.41;5003164;28;20058;-82
2022/09/04 10:31:43;;;;;;;6.97;5.07;;;;;;;22.93;49.27;94392.69;5018006;28;20030;-82
2022/09/04 10:34:27;;;;;;;12.43;5.97;;;;;;;23.20;48.81;94401.41;5002757;28;20018;-82
2022/09/04 10:37:08;;;;;;;7.78;5.25;;;;;;;23.27;47.17;94401.44;5018005;28;20069;-82
2022/09/04 10:43:18;;;;;;;7.15;4.72;;;;;;;23.45;47.67;94396.09;5002907;28;20033;-81
2022/09/04 10:46:04;;;;;;;9.35;4.90;;;;;;;23.63;48.39;94388.00;5002800;28;20026;-82
2022/09/04 10:49:02;;;;;;;9.85;4.18;;;;;;;23.76;47.09;94386.47;5002854;28;20220;-82
2022/09/04 10:51:47;;;;;;;7.07;4.85;;;;;;;23.85;47.51;94375.25;4995430;28;20034;-82
2022/09/04 10:54:43;;;;;;;8.07;4.63;;;;;;;24.08;47.31;94383.09;5006217;28;20050;-82
2022/09/04 10:57:36;;;;;;;7.00;5.15;;;;;;;24.26;46.31;94374.91;5006331;28;20030;-82
2022/09/04 11:00:18;;;;;;;11.38;5.13;;;;;;;24.38;45.97;94371.03;5021461;28;20352;-82
2022/09/04 11:02:57;;;;;;;;;;;;;;;24.53;45.68;94369.91;5006674;28;20026;-82
2022/09/04 11:05:32;;;;;;;8.00;4.90;;;;;;;24.70;45.83;94360.16;5006024;28;19912;-81
2022/09/04 11:08:15;;;;;;;6.82;4.40;;;;;;;24.84;44.78;94348.47;5006090;28;20018;-82
2022/09/04 11:10:59;;;;;;;7.82;4.68;;;;;;;25.01;44.86;94353.13;5006062;28;20420;-82
2022/09/04 11:13:38;;;;;;;6.50;4.55;;;;;;;24.99;43.38;94344.56;5005993;28;20033;-81
2022/09/04 11:16:04;;;;;;;13.82;4.97;;;;;;;24.98;43.77;94351.16;5005932;28;20248;-82
2022/09/04 11:18:48;;;;;;;9.45;4.68;;;;;;;25.11;43.39;94353.47;5005925;28;20105;-81
2022/09/04 11:21:22;;;;;;;11.50;5.13;;;;;;;25.30;43.17;94344.06;5005692;28;20030;-82
2022/09/04 11:24:12;;;;;;;8.52;4.55;;;;;;;25.50;43.40;94341.66;5006072;28;20026;-82
2022/09/04 11:27:00;;;;;;;8.30;4.30;;;;;;;25.76;43.02;94348.53;5005713;28;20026;-82
2022/09/04 11:29:31;;;;;;;6.28;4.18;;;;;;;25.91;41.88;94339.13;5005730;28;20220;-82
2022/09/04 11:32:19;;;;;;;5.78;4.43;;;;;;;26.04;42.17;94344.91;5005903;28;20084;-82
2022/09/04 11:35:19;;;;;;;7.72;4.13;;;;;;;26.14;41.71;94341.31;5005619;28;20036;-82
2022/09/04 11:38:18;;;;;;;6.35;4.30;;;;;;;26.09;40.35;94339.00;5005432;28;20246;-82
2022/09/04 11:41:01;;;;;;;5.38;4.13;;;;;;;26.12;39.41;94335.47;5005516;28;20042;-82
2022/09/04 11:43:51;;;;;;;8.52;3.83;;;;;;;26.20;39.52;94338.94;5005375;28;20026;-81
2022/09/04 11:46:37;;;;;;;6.63;4.32;;;;;;;26.47;38.47;94335.59;5005532;28;20062;-81
2022/09/04 11:49:35;;;;;;;5.68;3.67;;;;;;;26.56;39.87;94342.16;5005242;28;20034;-81
2022/09/04 11:52:08;;;;;;;5.90;4.00;;;;;;;26.55;38.50;94342.56;5005383;28;20146;-82
2022/09/04 11:54:37;;;;;;;10.55;5.72;;;;;;;26.63;37.65;94335.13;5005128;28;20340;-81
2022/09/04 11:57:34;;;;;;;5.38;3.80;;;;;;;26.44;38.29;94318.06;5005294;28;20052;-81
2022/09/04 12:00:11;;;;;;;6.15;3.90;;;;;;;26.34;38.70;94321.66;5005229;28;20045;-82
2022/09/04 12:02:55;;;;;;;11.02;4.40;;;;;;;26.25;38.18;94313.13;5004932;28;20094;-81
2022/09/04 12:05:49;;;;;;;6.47;4.45;;;;;;;26.23;39.06;94313.53;5004957;28;20045;-81
2022/09/04 12:08:30;;;;;;;7.78;4.07;;;;;;;26.32;37.32;94313.88;5004723;28;20305;-81
2022/09/04 12:11:33;;;;;;;11.07;4.10;;;;;;;26.44;38.88;94301.66;5004860;28;20042;-81
2022/09/04 12:14:13;;;;;;;7.65;3.63;;;;;;;26.66;37.85;94309.69;5004887;28;20048;-81
2022/09/04 12:17:36;;;;;;;7.65;3.97;;;;;;;26.79;37.53;94313.47;5004728;28;20049;-82
2022/09/04 12:20:13;;;;;;;;;;;;;;;26.88;39.91;94307.50;4964534;29;20023;-82
2022/09/04 12:23:27;;;;;;;9.02;3.58;;;;;;;27.06;38.07;94308.09;4964074;29;20101;-81
2022/09/04 12:26:01;;;;;;;6.55;4.18;;;;;;;27.30;36.89;94311.75;4956915;28;20034;-81
2022/09/04 12:28:40;;;;;;;10.70;3.55;;;;;;;27.38;36.36;94305.00;5004822;28;20209;-81
2022/09/04 12:31:18;;;;;;;6.72;4.38;;;;;;;27.30;35.55;94308.25;5019744;28;20194;-82
2022/09/04 12:34:09;;;;;;;5.93;4.13;;;;;;;27.26;37.21;94319.22;5004288;28;20026;-82
2022/09/04 12:37:18;;;;;;;8.02;3.92;;;;;;;27.06;36.91;94312.78;5004160;28;20045;-81
2022/09/04 12:40:05;;;;;;;6.25;4.15;;;;;;;26.90;37.68;94308.66;4990327;28;20034;-81
2022/09/04 12:42:40;;;;;;;10.00;4.13;;;;;;;26.75;37.38;94310.00;5004162;28;20053;-82
2022/09/04 12:45:11;;;;;;;5.45;4.00;;;;;;;26.72;37.27;94310.78;5004041;28;20097;-81
2022/09/04 12:47:50;;;;;;;9.07;4.10;;;;;;;26.58;36.96;94312.50;5003994;28;20042;-81
2022/09/04 12:50:37;;;;;;;5.50;3.92;;;;;;;26.45;37.82;94303.22;5004102;28;20034;-82
2022/09/04 12:53:15;;;;;;;10.18;4.55;;;;;;;26.23;40.10;94308.84;5003958;28;20041;-81